Time;durP1;ratioP1;P1;durP2;ratioP2;P2;SDS_P1;SDS_P2;PMS_P1;PMS_P2;Temp;Humidity;BMP_temperature;BMP_pressure;BME280_temperature;BME280_humidity;BME280_pressure;Samples;Min_cycle;Max_cycle;Signal;HPM_P1;HPM_P2
2022/10/31 00:00:41;;;;;;;19.70;10.87;;;;;;;13.40;100.00;101970.38;5253218;28;20037;-73
2022/10/31 00:03:13;;;;;;;14.50;9.67;;;;;;;13.57;100.00;101976.53;5269427;28;20082;-74
2022/10/31 00:05:49;;;;;;;14.90;10.67;;;;;;;13.47;100.00;101974.38;5265914;28;20053;-71
2022/10/31 00:08:20;;;;;;;14.70;9.83;;;;;;;13.47;100.00;101976.16;5268915;28;20119;-71
2022/10/31 00:10:51;;;;;;;21.43;10.40;;;;;;;13.28;100.00;101972.72;5266979;28;20028;-72
2022/10/31 00:13:22;;;;;;;18.30;11.30;;;;;;;13.27;100.00;101976.28;5268206;28;20043;-72
2022/10/31 00:15:54;;;;;;;18.03;11.53;;;;;;;13.23;100.00;101968.66;5269483;28;20029;-74
2022/10/31 00:18:25;;;;;;;14.00;11.03;;;;;;;13.13;100.00;101965.63;5267569;28;20110;-72
2022/10/31 00:21:03;;;;;;;20.27;11.57;;;;;;;13.22;100.00;101972.19;5266904;28;20038;-72
2022/10/31 00:23:34;;;;;;;17.37;10.40;;;;;;;13.15;100.00;101964.63;5268225;28;20042;-73
2022/10/31 00:26:06;;;;;;;15.00;10.03;;;;;;;13.10;100.00;101973.69;5248996;28;20028;-72
2022/10/31 00:28:37;;;;;;;15.33;10.73;;;;;;;12.99;100.00;101983.00;5267167;28;20020;-74
2022/10/31 00:31:10;;;;;;;20.03;10.63;;;;;;;12.99;100.00;101971.63;5270694;28;20094;-72
2022/10/31 00:33:42;;;;;;;14.90;9.40;;;;;;;12.96;100.00;101951.59;5248090;28;20112;-74
2022/10/31 00:36:16;;;;;;;16.27;10.30;;;;;;;12.86;100.00;101974.06;5276196;28;20461;-72
2022/10/31 00:38:48;;;;;;;12.98;10.00;;;;;;;12.97;100.00;101974.31;5277207;28;20060;-72
2022/10/31 00:41:19;;;;;;;16.40;10.43;;;;;;;12.97;100.00;101962.97;5276890;28;20052;-73
2022/10/31 00:43:50;;;;;;;15.77;10.77;;;;;;;12.92;100.00;101960.56;5276682;28;20487;-72
2022/10/31 00:46:21;;;;;;;16.43;10.13;;;;;;;12.79;100.00;101961.19;5272408;28;20039;-72
2022/10/31 00:48:53;;;;;;;17.57;11.03;;;;;;;12.99;100.00;101956.69;5265009;28;20020;-74
2022/10/31 00:51:24;;;;;;;16.50;10.63;;;;;;;12.89;100.00;101960.75;5268122;28;20055;-72
2022/10/31 00:53:55;;;;;;;14.80;10.70;;;;;;;12.80;100.00;101968.19;5271752;28;20054;-72
2022/10/31 00:56:27;;;;;;;19.30;11.20;;;;;;;12.73;100.00;101956.28;5276309;28;20060;-73
2022/10/31 00:58:58;;;;;;;16.17;10.30;;;;;;;12.65;100.00;101951.44;5265675;28;20025;-72
2022/10/31 01:01:29;;;;;;;17.77;10.63;;;;;;;12.95;100.00;101958.63;5256989;28;20031;-72
2022/10/31 01:04:00;;;;;;;18.10;10.50;;;;;;;12.91;100.00;101969.41;5275225;28;20036;-72
2022/10/31 01:06:32;;;;;;;19.90;11.10;;;;;;;12.73;100.00;101968.56;5259521;28;20052;-74
2022/10/31 01:09:03;;;;;;;14.70;10.00;;;;;;;12.77;100.00;101963.09;5276354;28;20036;-72
2022/10/31 01:11:35;;;;;;;20.10;11.27;;;;;;;12.74;100.00;101949.25;5256242;28;20487;-72
2022/10/31 01:14:06;;;;;;;16.13;10.60;;;;;;;12.73;100.00;101951.03;5275636;28;20043;-73
2022/10/31 01:16:37;;;;;;;19.43;11.23;;;;;;;12.79;100.00;101937.53;5266288;28;20028;-72
2022/10/31 01:19:08;;;;;;;15.33;10.83;;;;;;;12.63;100.00;101916.47;5247060;28;20033;-71
2022/10/31 01:21:40;;;;;;;16.37;10.53;;;;;;;12.77;100.00;101942.06;5272761;28;20479;-72
2022/10/31 01:24:11;;;;;;;24.63;11.87;;;;;;;12.51;100.00;101944.25;5275942;28;20091;-71
2022/10/31 01:26:42;;;;;;;13.87;10.13;;;;;;;12.63;100.00;101947.16;5257923;28;20035;-74
2022/10/31 01:29:13;;;;;;;14.97;10.53;;;;;;;12.58;100.00;101950.84;5276022;28;20028;-72
2022/10/31 01:31:45;;;;;;;19.47;11.30;;;;;;;12.38;100.00;101930.00;5275472;28;20103;-72
2022/10/31 01:34:17;;;;;;;15.17;10.00;;;;;;;12.44;100.00;101943.66;5263797;28;20028;-72
2022/10/31 01:36:50;;;;;;;20.57;9.93;;;;;;;12.68;100.00;101947.78;5250676;28;20028;-72
2022/10/31 01:39:22;;;;;;;18.50;10.95;;;;;;;12.47;100.00;101950.56;5270159;28;20105;-74
2022/10/31 01:41:54;;;;;;;18.33;10.80;;;;;;;12.55;100.00;101958.91;5274736;28;20033;-74
2022/10/31 01:44:26;;;;;;;19.07;10.77;;;;;;;12.39;100.00;101964.06;5258162;28;20127;-72
2022/10/31 01:47:13;;;;;;;16.87;11.10;;;;;;;12.41;100.00;101959.59;5256771;28;20029;-72
2022/10/31 01:49:53;;;;;;;15.97;11.30;;;;;;;12.28;100.00;101955.88;5245705;28;20107;-73
2022/10/31 01:52:30;;;;;;;17.63;11.60;;;;;;;12.42;100.00;101952.56;5264234;28;20040;-73
2022/10/31 01:55:07;;;;;;;17.33;11.87;;;;;;;12.33;100.00;101954.75;5259808;28;20091;-73
2022/10/31 01:57:42;;;;;;;15.40;11.30;;;;;;;12.29;100.00;101953.19;5238239;28;20090;-72
2022/10/31 02:00:15;;;;;;;17.80;11.13;;;;;;;12.24;100.00;101944.69;5251550;28;20079;-73
2022/10/31 02:02:48;;;;;;;17.33;11.60;;;;;;;12.13;100.00;101947.00;5270329;28;20078;-72
2022/10/31 02:05:24;;;;;;;20.03;11.40;;;;;;;12.30;100.00;101943.53;5261857;28;20056;-72
2022/10/31 02:08:02;;;;;;;14.33;10.67;;;;;;;12.25;100.00;101941.13;5236542;28;20037;-72
2022/10/31 02:10:36;;;;;;;16.00;10.73;;;;;;;12.17;100.00;101938.03;5259758;28;20029;-74
2022/10/31 02:13:08;;;;;;;18.50;11.90;;;;;;;12.24;100.00;101942.03;5257383;28;20028;-72
2022/10/31 02:15:42;;;;;;;16.87;10.93;;;;;;;12.14;100.00;101948.69;5260605;28;20036;-71
2022/10/31 02:18:14;;;;;;;19.10;11.93;;;;;;;12.19;100.00;101933.53;5269160;28;20044;-72
2022/10/31 02:21:04;;;;;;;16.57;11.43;;;;;;;12.10;100.00;101927.81;5265137;28;20029;-71
2022/10/31 02:24:05;;;;;;;15.63;11.63;;;;;;;12.11;100.00;101933.94;5257383;28;20115;-72
2022/10/31 02:27:13;;;;;;;16.33;11.10;;;;;;;12.17;100.00;101933.63;5257851;28;20028;-72
2022/10/31 02:30:01;;;;;;;15.60;11.80;;;;;;;12.04;100.00;101933.34;5275032;28;20029;-71
2022/10/31 02:32:54;;;;;;;18.30;10.50;;;;;;;12.00;100.00;101936.19;5271304;28;20520;-74
2022/10/31 02:35:45;;;;;;;15.30;10.00;;;;;;;12.07;100.00;101934.97;5249763;28;20024;-73
2022/10/31 02:38:16;;;;;;;12.57;10.00;;;;;;;11.86;100.00;101933.31;5255737;28;20029;-72
2022/10/31 02:41:04;;;;;;;15.47;10.80;;;;;;;11.83;100.00;101930.81;5275204;28;20017;-72
2022/10/31 02:43:43;;;;;;;14.60;10.70;;;;;;;11.80;100.00;101935.38;5257404;28;20025;-74
2022/10/31 02:46:34;;;;;;;15.53;10.67;;;;;;;12.04;100.00;101936.00;5275631;28;20363;-72
2022/10/31 02:49:15;;;;;;;15.63;11.10;;;;;;;11.79;100.00;101929.28;5237694;28;20525;-71
2022/10/31 02:51:46;;;;;;;14.40;11.33;;;;;;;11.95;100.00;101932.03;5257918;28;20717;-73
2022/10/31 02:54:28;;;;;;;13.53;11.13;;;;;;;11.83;100.00;101922.94;5262400;28;20104;-72
2022/10/31 02:57:07;;;;;;;15.83;11.80;;;;;;;11.96;100.00;101932.84;5257720;28;20036;-71
2022/10/31 02:59:44;;;;;;;16.93;12.10;;;;;;;11.88;100.00;101929.75;5262117;28;20774;-72
2022/10/31 03:02:37;;;;;;;18.60;11.50;;;;;;;11.97;100.00;101930.16;5255440;28;20036;-72
2022/10/31 03:05:19;;;;;;;14.83;9.40;;;;;;;11.94;100.00;101929.44;5260217;28;20710;-71
2022/10/31 03:08:01;;;;;;;15.57;11.40;;;;;;;11.82;100.00;101925.66;5271148;28;20021;-72
2022/10/31 03:10:47;;;;;;;14.10;10.40;;;;;;;11.78;100.00;101918.88;5271328;28;20450;-71
2022/10/31 03:13:45;;;;;;;16.63;10.90;;;;;;;11.80;100.00;101928.34;5278594;28;20032;-72
2022/10/31 03:16:32;;;;;;;15.00;9.77;;;;;;;11.78;100.00;101922.31;5265481;28;20074;-73
2022/10/31 03:19:28;;;;;;;21.07;11.37;;;;;;;11.79;100.00;101921.41;5278148;28;20374;-72
2022/10/31 03:22:22;;;;;;;14.70;10.40;;;;;;;11.85;100.00;101934.22;5278360;28;20033;-75
2022/10/31 03:24:55;;;;;;;16.63;10.37;;;;;;;11.83;100.00;101922.94;5278486;28;20464;-72
2022/10/31 03:27:31;;;;;;;12.63;10.97;;;;;;;11.72;100.00;101925.25;5278620;28;20459;-72
2022/10/31 03:30:07;;;;;;;12.20;9.30;;;;;;;11.65;100.00;101932.56;5260403;28;20483;-72
2022/10/31 03:32:44;;;;;;;12.70;9.70;;;;;;;11.52;100.00;101936.69;5274497;28;20029;-74
2022/10/31 03:35:18;;;;;;;14.07;10.10;;;;;;;11.43;100.00;101935.34;5254189;28;20391;-73
2022/10/31 03:37:53;;;;;;;15.03;10.63;;;;;;;11.32;100.00;101926.19;5259985;28;20340;-74
2022/10/31 03:40:26;;;;;;;17.15;10.20;;;;;;;11.40;100.00;101933.69;5278667;28;20433;-72
2022/10/31 03:43:03;;;;;;;12.55;9.73;;;;;;;11.45;100.00;101934.31;5277878;28;20025;-72
2022/10/31 03:45:40;;;;;;;13.13;9.70;;;;;;;11.35;100.00;101926.03;5278677;28;20024;-72
2022/10/31 03:48:14;;;;;;;20.90;10.87;;;;;;;11.12;100.00;101925.31;5258895;28;20024;-72
2022/10/31 03:50:53;;;;;;;12.45;10.18;;;;;;;11.21;100.00;101925.81;5274956;28;20099;-72
2022/10/31 03:53:34;;;;;;;12.50;9.97;;;;;;;11.33;100.00;101922.63;5269317;28;20032;-72
2022/10/31 03:56:26;;;;;;;16.07;10.80;;;;;;;11.32;100.00;101918.31;5277446;28;20086;-72
2022/10/31 03:59:10;;;;;;;15.27;9.87;;;;;;;11.08;100.00;101917.66;5276776;28;20043;-73
2022/10/31 04:01:48;;;;;;;15.10;10.15;;;;;;;11.26;100.00;101926.44;5259015;28;20056;-72
2022/10/31 04:04:20;;;;;;;12.07;10.77;;;;;;;11.19;100.00;101925.06;5272165;28;20078;-72
2022/10/31 04:06:53;;;;;;;15.27;9.80;;;;;;;11.19;100.00;101925.06;5256351;28;20049;-72
2022/10/31 04:09:27;;;;;;;13.57;10.77;;;;;;;11.15;100.00;101934.81;5243603;28;20044;-73
2022/10/31 04:12:00;;;;;;;15.50;10.20;;;;;;;11.17;100.00;101926.88;5248530;28;20125;-72
2022/10/31 04:14:34;;;;;;;13.75;10.00;;;;;;;11.18;100.00;101936.44;5274463;28;20028;-72
2022/10/31 04:17:12;;;;;;;19.60;11.02;;;;;;;11.24;100.00;101930.94;5256056;28;20036;-73
2022/10/31 04:19:44;;;;;;;15.07;11.13;;;;;;;11.27;100.00;101932.56;5246035;28;20025;-73
2022/10/31 04:22:15;;;;;;;16.43;11.17;;;;;;;11.21;100.00;101923.19;5264940;28;20078;-75
2022/10/31 04:24:46;;;;;;;15.63;10.47;;;;;;;11.25;100.00;101936.09;5256550;28;20025;-72
2022/10/31 04:27:17;;;;;;;16.47;11.20;;;;;;;11.24;100.00;101933.56;5252009;28;20040;-72
2022/10/31 04:29:49;;;;;;;14.50;11.00;;;;;;;11.23;100.00;101921.34;5277169;28;20033;-72
2022/10/31 04:32:20;;;;;;;16.57;12.57;;;;;;;11.28;100.00;101932.47;5257079;28;20542;-73
2022/10/31 04:34:51;;;;;;;20.67;12.40;;;;;;;11.34;100.00;101940.09;5249286;28;20044;-73
2022/10/31 04:37:23;;;;;;;20.20;14.77;;;;;;;11.30;100.00;101938.50;5267995;28;20426;-73
2022/10/31 04:39:54;;;;;;;20.97;13.50;;;;;;;11.37;100.00;101932.06;5268615;28;20052;-75
2022/10/31 04:42:29;;;;;;;20.47;14.17;;;;;;;11.44;100.00;101937.88;5267100;28;20035;-72
2022/10/31 04:45:00;;;;;;;24.47;15.80;;;;;;;11.29;100.00;101931.56;5267430;28;20044;-72
2022/10/31 04:47:33;;;;;;;22.60;13.63;;;;;;;11.28;100.00;101935.09;5249526;28;20098;-74
2022/10/31 04:50:04;;;;;;;20.33;14.63;;;;;;;11.20;100.00;101924.13;5265971;28;20112;-74
2022/10/31 04:52:43;;;;;;;21.97;14.17;;;;;;;11.26;100.00;101931.69;5266357;28;20524;-73
2022/10/31 04:55:15;;;;;;;19.83;13.60;;;;;;;11.20;100.00;101934.59;5249251;28;20048;-73
2022/10/31 04:57:48;;;;;;;23.87;13.53;;;;;;;11.29;100.00;101934.19;5267360;28;20610;-73
2022/10/31 05:00:22;;;;;;;21.03;12.87;;;;;;;11.22;100.00;101932.78;5248819;28;20039;-73
2022/10/31 05:02:55;;;;;;;19.92;13.05;;;;;;;11.24;100.00;101928.31;5265679;28;20036;-73
2022/10/31 05:05:29;;;;;;;19.57;13.87;;;;;;;11.22;100.00;101930.16;5266160;28;20489;-73
2022/10/31 05:08:01;;;;;;;20.83;14.20;;;;;;;11.22;100.00;101914.41;5265209;28;20038;-73
2022/10/31 05:10:32;;;;;;;21.13;13.73;;;;;;;11.26;100.00;101918.59;5247051;28;20032;-74
2022/10/31 05:13:04;;;;;;;18.40;13.07;;;;;;;11.11;100.00;101918.38;5266603;28;20028;-73
2022/10/31 05:15:35;;;;;;;20.00;13.27;;;;;;;11.30;100.00;101908.81;5247817;28;20078;-72
2022/10/31 05:18:07;;;;;;;20.17;13.90;;;;;;;11.10;100.00;101916.66;5247402;28;20831;-73
2022/10/31 05:20:38;;;;;;;21.17;12.93;;;;;;;11.13;100.00;101919.16;5266577;28;21547;-74
2022/10/31 05:23:09;;;;;;;17.67;13.17;;;;;;;11.20;100.00;101924.97;5268631;28;20020;-72
2022/10/31 05:25:41;;;;;;;20.70;12.93;;;;;;;11.17;100.00;101919.03;5268663;28;20064;-73
2022/10/31 05:28:12;;;;;;;20.27;13.67;;;;;;;11.17;100.00;101917.22;5265229;28;20040;-74
2022/10/31 05:30:43;;;;;;;19.87;13.93;;;;;;;11.11;100.00;101913.13;5266291;28;20043;-73
2022/10/31 05:33:14;;;;;;;19.03;13.07;;;;;;;11.05;100.00;101913.38;5266562;28;20041;-75
2022/10/31 05:35:46;;;;;;;18.13;12.67;;;;;;;10.81;100.00;101899.59;5265544;28;20037;-72
2022/10/31 05:38:17;;;;;;;15.80;12.30;;;;;;;11.10;100.00;101900.09;5269934;28;20048;-74
2022/10/31 05:40:48;;;;;;;18.60;12.83;;;;;;;11.06;100.00;101907.25;5266221;28;20073;-72
2022/10/31 05:43:20;;;;;;;21.47;13.17;;;;;;;11.01;100.00;101902.19;5247620;28;20115;-73
2022/10/31 05:45:55;;;;;;;21.43;13.30;;;;;;;11.11;100.00;101897.41;5262672;28;20037;-73
2022/10/31 05:48:27;;;;;;;17.67;13.40;;;;;;;10.96;100.00;101908.56;5247093;28;20047;-73
2022/10/31 05:50:58;;;;;;;19.50;14.00;;;;;;;10.88;100.00;101901.91;5266530;28;20040;-74
2022/10/31 05:53:29;;;;;;;16.33;13.00;;;;;;;10.99;100.00;101897.94;5248487;28;20037;-72
2022/10/31 05:56:01;;;;;;;18.37;12.40;;;;;;;10.91;100.00;101900.06;5265317;28;20040;-74
2022/10/31 05:58:32;;;;;;;18.20;13.07;;;;;;;10.88;100.00;101893.19;5265642;28;20064;-72
2022/10/31 06:01:03;;;;;;;21.63;14.53;;;;;;;10.91;100.00;101898.28;5266151;28;20031;-73
2022/10/31 06:03:34;;;;;;;23.43;13.87;;;;;;;10.84;100.00;101884.59;5265758;28;20028;-73
2022/10/31 06:06:06;;;;;;;21.23;13.87;;;;;;;10.78;100.00;101900.59;5247531;28;20067;-71
2022/10/31 06:08:38;;;;;;;17.93;13.30;;;;;;;10.64;100.00;101868.00;5265642;28;20028;-76
2022/10/31 06:11:09;;;;;;;18.40;12.80;;;;;;;10.79;100.00;101876.09;5266092;28;20033;-73
2022/10/31 06:13:40;;;;;;;18.90;13.63;;;;;;;10.79;100.00;101881.31;5266555;28;20124;-71
2022/10/31 06:16:11;;;;;;;26.20;14.33;;;;;;;10.81;100.00;101879.50;5245804;28;20028;-71
2022/10/31 06:18:43;;;;;;;25.13;14.47;;;;;;;10.77;100.00;101885.78;5264163;28;20139;-74
2022/10/31 06:21:14;;;;;;;20.33;14.30;;;;;;;10.55;100.00;101880.63;5264649;28;20032;-71
2022/10/31 06:23:45;;;;;;;24.27;13.43;;;;;;;10.78;100.00;101884.88;5265444;28;20031;-72
2022/10/31 06:26:17;;;;;;;16.70;13.40;;;;;;;10.68;100.00;101876.59;5266664;28;20036;-73
2022/10/31 06:28:48;;;;;;;25.63;14.97;;;;;;;10.67;100.00;101871.38;5269304;28;20032;-72
2022/10/31 06:31:19;;;;;;;21.50;15.63;;;;;;;10.72;100.00;101878.13;5269967;28;20441;-72
2022/10/31 06:33:50;;;;;;;19.20;14.20;;;;;;;10.86;100.00;101880.16;5267424;28;20055;-72
2022/10/31 06:36:22;;;;;;;22.80;14.30;;;;;;;10.68;100.00;101894.06;5251510;28;20033;-74
2022/10/31 06:38:53;;;;;;;19.63;13.73;;;;;;;10.63;100.00;101887.25;5269146;28;20027;-72
2022/10/31 06:41:24;;;;;;;22.97;14.97;;;;;;;10.62;100.00;101893.41;5273910;28;20563;-73
2022/10/31 06:43:55;;;;;;;24.97;16.27;;;;;;;10.63;100.00;101889.84;5270081;28;20518;-72
2022/10/31 06:46:27;;;;;;;21.67;15.50;;;;;;;10.67;100.00;101895.81;5278048;28;20390;-72
2022/10/31 06:48:58;;;;;;;21.60;15.77;;;;;;;10.72;100.00;101886.00;5273661;28;20547;-73
2022/10/31 06:51:29;;;;;;;23.60;15.67;;;;;;;10.84;100.00;101889.00;5268173;28;20511;-71
2022/10/31 06:54:01;;;;;;;28.23;16.10;;;;;;;10.68;100.00;101884.44;5264197;28;20060;-73
2022/10/31 06:56:32;;;;;;;30.23;15.53;;;;;;;10.71;100.00;101876.44;5279682;28;20119;-72
2022/10/31 06:59:03;;;;;;;20.50;16.40;;;;;;;10.72;100.00;101891.22;5279055;28;20110;-72
2022/10/31 07:01:35;;;;;;;24.47;14.50;;;;;;;10.82;100.00;101881.19;5247063;28;20056;-73
2022/10/31 07:04:10;;;;;;;20.33;15.37;;;;;;;10.85;100.00;101890.69;5261733;28;20025;-71
2022/10/31 07:06:41;;;;;;;23.43;16.50;;;;;;;10.86;100.00;101877.53;5274320;28;20047;-72
2022/10/31 07:09:12;;;;;;;19.43;16.83;;;;;;;10.89;100.00;101893.09;5246871;28;20021;-75
2022/10/31 07:11:44;;;;;;;28.47;16.90;;;;;;;10.95;100.00;101888.50;5257369;28;20025;-72
2022/10/31 07:14:15;;;;;;;26.53;16.63;;;;;;;10.96;100.00;101877.13;5240810;28;20033;-72
2022/10/31 07:16:50;;;;;;;19.50;14.87;;;;;;;11.07;100.00;101880.09;5271462;28;20036;-72
2022/10/31 07:19:21;;;;;;;21.77;14.30;;;;;;;10.96;100.00;101871.88;5257783;28;20028;-70
2022/10/31 07:21:53;;;;;;;22.83;16.20;;;;;;;11.12;100.00;101893.84;5275247;28;20032;-70
2022/10/31 07:24:24;;;;;;;24.03;16.53;;;;;;;11.09;100.00;101894.00;5275619;28;20112;-72
2022/10/31 07:26:55;;;;;;;25.27;14.63;;;;;;;11.10;100.00;101887.81;5250148;28;20025;-71
2022/10/31 07:29:27;;;;;;;21.70;15.30;;;;;;;11.18;100.00;101890.09;5257207;28;20025;-72
2022/10/31 07:31:58;;;;;;;25.30;15.40;;;;;;;11.28;100.00;101903.63;5262472;28;20040;-72
2022/10/31 07:34:29;;;;;;;23.40;15.33;;;;;;;11.08;100.00;101859.97;5268275;28;20036;-73
2022/10/31 07:37:00;;;;;;;23.23;15.83;;;;;;;11.41;100.00;101898.69;5274323;28;20032;-72
2022/10/31 07:39:32;;;;;;;25.47;16.73;;;;;;;11.42;100.00;101896.88;5269691;28;20037;-75
2022/10/31 07:42:03;;;;;;;21.97;17.03;;;;;;;11.31;100.00;101906.09;5279083;28;20025;-71
2022/10/31 07:44:34;;;;;;;22.77;19.17;;;;;;;11.55;100.00;101895.41;5285196;28;20142;-73
2022/10/31 07:47:05;;;;;;;26.90;20.90;;;;;;;11.56;100.00;101870.88;5277277;28;20033;-72
2022/10/31 07:49:37;;;;;;;29.30;19.17;;;;;;;11.74;100.00;101895.41;5277142;28;20024;-72
2022/10/31 07:52:08;;;;;;;29.53;19.67;;;;;;;11.71;100.00;101902.56;5277607;28;20029;-72
2022/10/31 07:54:39;;;;;;;28.60;20.13;;;;;;;11.75;100.00;101893.59;5277836;28;20032;-72
2022/10/31 07:57:11;;;;;;;30.03;20.63;;;;;;;11.86;100.00;101893.94;5278214;28;20036;-75
2022/10/31 07:59:42;;;;;;;32.83;22.53;;;;;;;11.82;100.00;101892.38;5259554;28;20070;-76
2022/10/31 08:02:13;;;;;;;34.13;25.80;;;;;;;11.90;100.00;101892.03;5278123;28;20442;-71
2022/10/31 08:04:45;;;;;;;32.50;23.90;;;;;;;11.98;100.00;101900.38;5280892;28;20027;-71
2022/10/31 08:07:17;;;;;;;35.43;24.00;;;;;;;12.05;100.00;101907.94;5277477;28;20043;-71
2022/10/31 08:09:48;;;;;;;37.23;25.10;;;;;;;12.14;100.00;101904.91;5277354;28;20089;-72
2022/10/31 08:12:19;;;;;;;39.17;25.57;;;;;;;12.12;100.00;101893.63;5278748;28;20028;-73
2022/10/31 08:14:51;;;;;;;37.27;24.30;;;;;;;12.28;100.00;101906.84;5279401;28;20074;-73
2022/10/31 08:17:22;;;;;;;35.30;26.70;;;;;;;12.39;100.00;101901.03;5277385;28;20635;-72
2022/10/31 08:19:53;;;;;;;40.20;25.00;;;;;;;12.49;100.00;101905.81;5279244;28;20016;-73
2022/10/31 08:22:24;;;;;;;38.37;26.47;;;;;;;12.53;100.00;101892.44;5281062;28;20137;-70
2022/10/31 08:24:56;;;;;;;33.90;26.20;;;;;;;12.50;100.00;101874.22;5258394;28;20406;-71
2022/10/31 08:27:27;;;;;;;36.50;26.87;;;;;;;12.61;100.00;101883.31;5275138;28;20405;-71
2022/10/31 08:29:58;;;;;;;32.17;25.83;;;;;;;12.74;100.00;101909.81;5276334;28;20044;-73
2022/10/31 08:32:30;;;;;;;37.73;24.93;;;;;;;12.78;100.00;101900.81;5276237;28;20032;-72
2022/10/31 08:35:01;;;;;;;38.23;25.67;;;;;;;12.83;100.00;101872.50;5275774;28;20460;-72
2022/10/31 08:37:32;;;;;;;33.67;24.77;;;;;;;12.88;100.00;101888.06;5275616;28;20129;-74
2022/10/31 08:40:06;;;;;;;37.87;26.57;;;;;;;12.95;100.00;101882.38;5258389;28;20055;-74
2022/10/31 08:42:37;;;;;;;40.45;25.85;;;;;;;12.83;100.00;101856.75;5258648;28;20515;-71
2022/10/31 08:45:09;;;;;;;39.83;26.80;;;;;;;12.93;100.00;101838.72;5258354;28;20024;-71
2022/10/31 08:47:40;;;;;;;32.10;24.37;;;;;;;12.85;100.00;101835.63;5276740;28;20024;-72
2022/10/31 08:50:11;;;;;;;34.33;26.60;;;;;;;12.86;100.00;101832.09;5275681;28;20095;-73
2022/10/31 08:52:43;;;;;;;37.17;26.10;;;;;;;12.86;100.00;101837.34;5275932;28;20032;-74
2022/10/31 08:55:14;;;;;;;35.63;25.50;;;;;;;12.93;100.00;101854.50;5257255;28;20107;-73
2022/10/31 08:57:45;;;;;;;38.97;27.43;;;;;;;12.66;100.00;101834.84;5258654;28;20031;-72
2022/10/31 09:00:17;;;;;;;38.17;27.17;;;;;;;12.84;100.00;101871.59;5276753;28;20375;-71
2022/10/31 09:02:54;;;;;;;39.57;26.47;;;;;;;12.89;100.00;101866.94;5275794;28;20479;-75
2022/10/31 09:05:26;;;;;;;34.03;26.30;;;;;;;12.89;100.00;101860.84;5276151;28;20068;-71
2022/10/31 09:07:59;;;;;;;39.20;27.83;;;;;;;12.78;100.00;101846.47;5276086;28;20064;-71
2022/10/31 09:10:32;;;;;;;35.50;27.43;;;;;;;12.95;100.00;101861.34;5257342;28;20021;-72
2022/10/31 09:13:06;;;;;;;36.30;27.93;;;;;;;13.16;100.00;101869.00;5276940;28;20047;-71
2022/10/31 09:15:39;;;;;;;;;;;;;;;13.42;100.00;101864.09;5276683;28;20032;-71
2022/10/31 09:18:13;;;;;;;37.00;25.07;;;;;;;13.39;100.00;101884.44;5258153;28;19912;-72
2022/10/31 09:20:45;;;;;;;47.20;27.23;;;;;;;13.26;100.00;101842.22;5258300;28;20039;-71
2022/10/31 09:23:22;;;;;;;36.60;26.93;;;;;;;13.35;100.00;101835.59;5276209;28;20443;-71
2022/10/31 09:25:54;;;;;;;33.73;27.20;;;;;;;13.38;100.00;101846.78;5274705;28;20520;-71
2022/10/31 09:28:26;;;;;;;38.50;25.53;;;;;;;13.41;100.00;101814.19;5258399;28;20051;-72
2022/10/31 09:30:57;;;;;;;38.67;27.40;;;;;;;13.52;100.00;101829.41;5257763;28;20032;-72
2022/10/31 09:33:28;;;;;;;37.33;26.93;;;;;;;13.60;100.00;101821.06;5258129;28;20435;-74
2022/10/31 09:35:59;;;;;;;38.83;27.90;;;;;;;13.54;100.00;101809.94;5275477;28;20056;-76
2022/10/31 09:38:31;;;;;;;41.50;27.60;;;;;;;13.59;100.00;101790.41;5275545;28;20032;-72
2022/10/31 09:41:19;;;;;;;39.20;27.47;;;;;;;13.67;100.00;101790.81;5275246;28;20112;-72
2022/10/31 09:44:18;;;;;;;40.87;28.00;;;;;;;13.64;100.00;101799.75;5275839;28;20028;-72
2022/10/31 09:47:06;;;;;;;36.47;27.83;;;;;;;13.63;100.00;101810.38;5257291;28;20078;-75
2022/10/31 09:50:06;;;;;;;36.87;27.03;;;;;;;13.62;100.00;101812.16;5275506;28;20048;-74
2022/10/31 09:52:41;;;;;;;39.20;27.60;;;;;;;13.52;100.00;101796.03;5257827;28;20085;-72
2022/10/31 09:55:36;;;;;;;41.50;29.37;;;;;;;13.61;100.00;101801.72;5273867;28;20123;-73
2022/10/31 09:58:15;;;;;;;38.63;28.93;;;;;;;13.61;100.00;101796.44;5276236;28;20032;-73
2022/10/31 10:00:47;;;;;;;39.10;28.63;;;;;;;13.48;100.00;101791.84;5258381;28;20339;-74
2022/10/31 10:03:22;;;;;;;41.37;28.73;;;;;;;13.63;100.00;101797.22;5280074;28;20029;-76
2022/10/31 10:06:18;;;;;;;38.65;27.88;;;;;;;13.66;100.00;101791.75;5279183;28;20094;-72
2022/10/31 10:08:49;;;;;;;46.47;29.07;;;;;;;13.60;100.00;101755.25;5279658;28;20029;-72
2022/10/31 10:11:39;;;;;;;42.40;28.40;;;;;;;13.81;100.00;101773.38;5260869;28;20632;-75
2022/10/31 10:14:24;;;;;;;41.03;27.17;;;;;;;13.92;100.00;101760.41;5279349;28;20120;-73
2022/10/31 10:17:38;;;;;;;42.92;29.23;;;;;;;14.20;100.00;101769.31;5261058;28;20032;-72
2022/10/31 10:20:32;;;;;;;40.80;27.27;;;;;;;14.37;100.00;101757.72;5261396;28;20364;-74
2022/10/31 10:23:37;;;;;;;41.37;29.03;;;;;;;14.47;100.00;101750.09;5266742;28;20518;-72
2022/10/31 10:26:19;;;;;;;;;;;;;;;14.63;100.00;101746.50;5278625;28;20036;-73
2022/10/31 10:29:24;;;;;;;44.87;30.07;;;;;;;14.55;100.00;101746.13;5279161;28;19926;-74
2022/10/31 10:32:01;;;;;;;48.35;31.77;;;;;;;14.45;100.00;101720.34;5237164;28;20041;-72
2022/10/31 10:34:49;;;;;;;46.93;33.30;;;;;;;14.52;100.00;101734.00;5260752;28;20036;-73
2022/10/31 10:37:28;;;;;;;42.60;30.37;;;;;;;14.60;100.00;101752.81;5278871;28;20036;-72
2022/10/31 10:40:17;;;;;;;43.43;30.97;;;;;;;14.62;100.00;101755.34;5278020;28;20470;-73
2022/10/31 10:43:18;;;;;;;48.07;32.43;;;;;;;14.61;100.00;101756.28;5279086;28;20037;-73
2022/10/31 10:49:02;;;;;;;46.03;31.60;;;;;;;14.60;100.00;101739.63;5279118;28;20470;-73
2022/10/31 10:51:42;;;;;;;;;;;;;;;14.84;100.00;101736.41;5279542;28;20111;-74
2022/10/31 10:54:36;;;;;;;49.77;31.87;;;;;;;14.78;100.00;101731.50;5263422;28;19913;-78
2022/10/31 10:57:20;;;;;;;55.03;31.90;;;;;;;14.34;100.00;101647.25;5280305;28;20378;-76
2022/10/31 10:59:51;;;;;;;43.60;31.20;;;;;;;14.84;100.00;101715.31;5281152;28;20548;-76
2022/10/31 11:02:30;;;;;;;48.93;33.23;;;;;;;14.86;100.00;101717.84;5261280;28;20028;-71
2022/10/31 11:05:03;;;;;;;49.53;31.93;;;;;;;14.97;100.00;101725.94;5280829;28;20040;-73
2022/10/31 11:07:39;;;;;;;45.73;32.23;;;;;;;14.99;100.00;101731.13;5260859;28;20490;-73
2022/10/31 11:10:15;;;;;;;50.77;33.93;;;;;;;15.07;100.00;101727.97;5277833;28;20032;-73
2022/10/31 11:13:20;;;;;;;53.50;34.37;;;;;;;15.13;100.00;101714.38;5274800;28;20101;-73
2022/10/31 11:16:06;;;;;;;48.45;31.58;;;;;;;15.21;100.00;101724.41;5277796;28;20036;-71
2022/10/31 11:18:41;;;;;;;44.47;31.63;;;;;;;15.28;100.00;101722.22;5278670;28;20106;-74
2022/10/31 11:21:26;;;;;;;43.67;28.37;;;;;;;15.24;100.00;101701.31;5278655;28;20570;-75
2022/10/31 11:24:10;;;;;;;44.53;31.50;;;;;;;15.34;100.00;101687.53;5260321;28;20031;-72
2022/10/31 11:26:43;;;;;;;47.00;31.87;;;;;;;15.29;100.00;101684.34;5276724;28;20035;-75
2022/10/31 11:29:24;;;;;;;40.87;29.73;;;;;;;15.29;100.00;101673.78;5260579;28;20059;-75
2022/10/31 11:31:57;;;;;;;38.73;28.53;;;;;;;15.27;100.00;101667.75;5278793;28;20062;-73
2022/10/31 11:34:37;;;;;;;43.23;29.00;;;;;;;15.29;100.00;101653.50;5260782;28;20032;-73
2022/10/31 11:37:14;;;;;;;45.57;29.63;;;;;;;15.42;100.00;101661.44;5277465;28;20159;-73
2022/10/31 11:39:53;;;;;;;43.90;29.10;;;;;;;15.41;100.00;101641.25;5276607;28;20046;-72
2022/10/31 11:42:35;;;;;;;42.77;29.50;;;;;;;15.54;100.00;101637.78;5277995;28;20032;-73